ACT        NSW        VIC        QLD        SA        WA        TAS        NT        INFO        CALC            by VK5ZD

  Atmospheric Gas Attenuation - ITU Rec 676-11   --------------- db/100km ---------------
Station Date Time Temp RH % AH g/m3 Dew Point Wind Direction Speed kph Gust kph Barometer mB Rainfall Since 9am 24GHz 47GHz 76GHz 122GHz 134GHz 241GHz
Adelaide (West Terrace / Ngayirdapira) 07 06:50 8.7 71 6.14 3.7 7 11 1015.1 0.2 14.5 23.4 32.4 84.7 72.0 245.3
Adelaide Airport 07 06:50 8.9 72 6.31 4.1 1015.3 0 14.9 23.7 33.0 86.3 74.0 252.4
Cape Borda 07 06:50 8 90 7.44 6.5 19 20 1017.1 0 17.4 25.8 38.1 99.7 90.2 308.8
Cape Jaffa 07 06:50 6.9 78 6.01 3.3 17 20 1013.1 0 14.3 23.6 32.6 85.1 71.8 244.5
Cape Willoughby 07 06:50 10.5 74 7.18 6 43 48 1013.1 0 16.7 24.5 35.7 93.4 83.6 286.1
Ceduna 07 06:50 5.6 89 6.3 3.9 13 15 1016.6 4 15.0 24.6 34.4 90.0 77.2 263.0
Clare 07 06:50 4.9 84 5.67 2.4 15 20 1011.6 2.4 13.7 23.5 32.0 83.5 69.1 234.5
Cleve Airport 07 06:50 5.9 90 6.49 4.4 7 7 1014.7 1.4 15.4 24.7 35.0 91.6 79.3 270.6
Coober Pedy Airport 07 06:50 6.7 100 7.6 6.7 19 22 1013.9 1.2 17.8 26.3 39.2 102.9 93.7 321.0
Coonawarra 07 06:50 6.8 78 5.97 3.2 15 17 1018.2 0 14.3 23.8 32.7 85.2 71.7 244.0
Cultana (Defence) 07 06:50 6.3 87 6.44 4.3 26 32 1013.1 9.6 15.3 24.5 34.6 90.4 78.1 266.5
Cummins Airport 07 06:50 7.4 98 7.8 7.1 9 11 1015.9 0 18.2 26.6 39.8 104.5 95.8 328.5
Edinburgh 07 06:50 8.4 70 5.94 3.3 11 13 1015.1 0 14.1 23.2 31.8 82.9 69.7 237.1
Edithburgh 07 06:50 10.3 95 9.1 9.5 28 32 1013.1 0 20.8 27.8 43.7 114.9 110.0 378.4
Ernabella/Pukatja 07 06:50 7 99 7.67 6.9 24 33 1014.3 2.8 17.9 26.4 39.4 103.3 94.3 323.3
Hindmarsh Island 07 06:50 8.4 73 6.2 3.8 30 32 1015.9 0 14.7 23.6 32.8 85.7 73.1 249.1
Kadina 07 06:50 6.3 90 6.67 4.8 15 17 1014.4 1 15.8 24.9 35.6 93.0 81.3 277.7
Keith West 07 06:50 5.4 87 6.07 3.4 7 11 1013.1 0 14.5 24.1 33.4 87.4 74.0 252.0
Kingscote 07 06:50 9.7 86 7.93 7.5 22 26 1016.7 0.4 18.3 26.1 39.3 102.9 94.8 325.3
Kuitpo 07 06:50 5.4 97 6.77 5 33 41 1013 0 16.0 25.3 36.3 95.1 83.6 285.4
Lameroo Aws 07 06:50 6.4 79 5.89 3 22 24 1013.1 0 14.1 23.6 32.3 84.3 70.7 240.5
Leigh Creek 07 06:50 4.5 84 5.53 2 24 28 1009.2 0 13.4 23.3 31.5 82.2 67.4 228.7
Loxton 07 06:50 7.3 73 5.77 2.8 20 24 1013.7 0 13.8 23.2 31.5 82.2 68.4 232.4
Marree Airport 07 06:50 6.4 96 7.16 5.8 13 13 1009.9 9.4 16.8 25.5 37.4 97.9 87.6 299.7
Minlaton Airport 07 06:50 8.9 81 7.1 5.8 17 19 1015.3 0 16.6 24.9 36.2 94.7 84.4 288.8
Minnipa Rs 07 06:50 5.5 88 6.18 3.7 11 13 1015.5 4.2 14.8 24.4 33.9 88.7 75.6 257.4
Moomba Airport 07 06:50 7.3 100 7.9 7.3 28 32 1007.9 19.2 18.4 26.4 39.9 104.9 96.7 331.6
Mount Gambier 07 06:50 6.2 87 6.4 4.2 20 26 1019.2 0 15.2 24.7 34.7 90.7 78.1 266.3
Mount Lofty 07 06:50 3 99 5.89 2.8 22 35 1013.1 0.2 14.2 24.5 33.7 88.1 73.9 251.1
MT CRAWFORD AWS 07 06:50 3.3 100 6.07 3.3 35 44 1012.1 0.2 14.6 24.7 34.3 89.7 76.0 258.6
Naracoorte 07 06:50 6.5 79 5.93 3.1 17 20 1017.3 0 14.2 23.8 32.6 85.1 71.4 242.9
Noarlunga 07 06:50 8.5 84 7.17 5.9 17 22 1013.1 0 16.8 25.1 36.6 95.7 85.6 293.0
Nullarbor 07 06:30 7.8 100 8.16 7.8 9 11 1017.4 3.8 18.9 27.1 41.2 108.2 100.5 344.9
Nuriootpa 07 06:50 5.5 94 6.61 4.6 11 15 1013.7 0.8 15.7 25.0 35.6 93.3 81.3 277.5
Oodnadatta 07 06:50 6.2 95 6.99 5.5 15 17 1013.3 17.6 16.5 25.4 36.9 96.6 85.7 293.1
Padthaway 07 06:50 5.1 86 5.89 3 9 11 1013.1 0 14.1 23.9 32.8 85.8 71.9 244.5
Pallamana 07 06:50 6.3 89 6.59 4.7 13 15 1015.9 0 15.6 24.8 35.3 92.3 80.3 274.2
Parafield 07 06:50 8.3 73 6.16 3.8 11 11 1015 0 14.6 23.6 32.7 85.3 72.6 247.4
Parawa West 07 06:50 7.1 89 6.94 5.5 28 30 1013.1 0 16.3 25.1 36.3 94.9 84.0 287.3
Parndana 07 06:50 8.5 87 7.43 6.4 28 37 1013.1 0 17.3 25.5 37.6 98.6 89.1 305.4
Point Avoid 07 06:50 9.1 77 6.83 5.4 11 13 1013.1 0 16.0 24.4 34.9 91.3 80.5 275.0
Port Augusta 07 06:50 8 80 6.62 4.8 28 33 1012.3 6.6 15.6 24.3 34.5 90.3 78.8 268.9
Port Lincoln Airport 07 06:50 11.3 65 6.63 5 22 24 1016.2 0 15.5 23.6 33.3 87.1 75.9 259.2
Port Pirie Airport Aws 07 06:50 6.7 88 6.69 4.9 20 24 1013 3.2 15.8 24.8 35.4 92.6 81.1 276.9
Renmark Airport 07 06:50 7.3 72 5.69 2.6 19 22 1013.1 0 13.6 23.0 31.2 81.3 67.3 228.7
Robe Airport 07 06:50 7.4 83 6.6 4.7 19 22 1013.1 0 15.6 24.4 34.7 90.8 79.2 270.2
Roseworthy 07 06:50 7.5 77 6.17 3.7 17 19 1014.1 0 14.7 23.8 33.0 86.2 73.4 250.2
Roxby Downs 07 06:50 6.6 87 6.57 4.6 20 22 1011.7 2.4 15.5 24.6 34.9 91.3 79.5 271.2
Snowtown 07 06:50 6.1 86 6.29 3.9 17 22 1013.4 3.8 15.0 24.3 34.0 89.0 76.3 260.1
Stenhouse Bay 07 06:50 11.1 68 6.85 5.4 30 35 1013.1 0 16.0 23.8 34.1 89.3 78.7 269.0
Strathalbyn 07 06:50 7.5 83 6.65 4.8 17 20 1015.8 0 15.7 24.6 35.0 91.5 79.9 272.8
Tarcoola 07 06:50 6.7 91 6.92 5.3 13 15 1014.8 2 16.3 25.2 36.4 95.4 84.3 288.3
Whyalla 07 06:50 8.1 79 6.58 4.7 17 22 1013.6 4 15.5 24.2 34.4 89.9 78.2 267.0
WOOMERA 07 06:50 6.1 92 6.73 4.9 22 26 1012.2 3 15.9 25.0 35.8 93.7 82.2 280.7
Wudinna Airport 07 06:50 6.6 86 6.5 4.4 11 13 1015.5 1.2 15.4 24.6 34.8 90.9 78.8 268.8
Yunta 07 06:50 4.2 88 5.67 2.4 26 35 1013.1 3.6 13.7 23.8 32.3 84.4 69.8 236.9

Last Refresh: 07-Aug-2020 06:57:59

The information presented on this site is sourced from the Bureau of Meteorology.  Copyright in all material sourced from the Bureau of Meteorology resides with the Commonwealth of Australia.